WMKC/KBR METAR and TAF weather

Enter ICAO airport designator
Station Type Date Time Source
WMKC METAR 2020/04/03 22:00 UTC NOAA

WMKC 032200Z 20003KT 160V250 9999 FEW020 26/25 Q1009


Station Type Date Time Source
WMKC Decoded METAR 2020/04/03 22:00 UTC NOAA

Kota Bharu, Malaysia (WMKC) 06-10N 102-17E 5M
Apr 03, 2020 - 06:00 PM EDT / 2020.04.03 2200 UTC
Wind: from the SSW (200 degrees) at 3 MPH (3 KT) (direction variable):0
Visibility: greater than 7 mile(s):0
Sky conditions: mostly clear
Temperature: 78 F (26 C)
Dew Point: 77 F (25 C)
Relative Humidity: 94%
Pressure (altimeter): 29.80 in. Hg (1009 hPa)
ob: WMKC 032200Z 20003KT 160V250 9999 FEW020 26/25 Q1009
cycle: 22

Station Type Date Time Source
WMKC TAF 2020/04/03 18:00 UTC NOAA

TAF WMKC 031700Z 0318/0418 VRB03KT 9999 FEW020
BECMG 0402/0404 09006KT FEW018
BECMG 0412/0414 VRB03KT FEW020

Example: see airport list